createdAt,value
2022-12-04T12:19:47.941Z,101943.47
2022-12-04T12:22:31.571Z,101931.50
2022-12-04T12:25:04.517Z,101935.69
2022-12-04T12:28:01.588Z,101932.91
2022-12-04T12:30:39.630Z,101928.16
2022-12-04T12:33:23.711Z,101932.91
2022-12-04T12:36:05.991Z,101935.97
2022-12-04T12:38:55.411Z,101933.44
2022-12-04T12:41:28.095Z,101929.28
2022-12-04T12:44:04.504Z,101924.56
2022-12-04T12:46:40.589Z,101926.94
2022-12-04T12:49:36.234Z,101930.41
2022-12-04T12:52:20.039Z,101933.88
2022-12-04T12:54:53.222Z,101928.44
2022-12-04T12:57:30.922Z,101919.00
2022-12-04T13:00:06.929Z,101922.59
2022-12-04T13:02:42.716Z,101915.78
2022-12-04T13:05:13.002Z,101913.28
2022-12-04T13:08:03.935Z,101906.91
2022-12-04T13:10:39.076Z,101903.69
2022-12-04T13:13:10.734Z,101899.38
2022-12-04T13:15:52.551Z,101900.63
2022-12-04T13:18:30.816Z,101893.25
2022-12-04T13:21:01.881Z,101893.94
2022-12-04T13:23:42.344Z,101891.16
2022-12-04T13:26:24.061Z,101889.47
2022-12-04T13:29:01.606Z,101882.38
2022-12-04T13:31:49.215Z,101878.34
2022-12-04T13:34:40.050Z,101874.72
2022-12-04T13:37:21.722Z,101875.28
2022-12-04T13:40:29.645Z,101864.53
2022-12-04T13:43:16.885Z,101867.06
2022-12-04T13:45:46.994Z,101861.63
2022-12-04T13:48:26.962Z,101860.53
2022-12-04T13:51:03.004Z,101863.56
2022-12-04T13:53:32.181Z,101858.84
2022-12-04T13:56:04.558Z,101861.22
2022-12-04T13:58:36.037Z,101861.19
2022-12-04T14:01:11.290Z,101852.13
2022-12-04T14:03:47.887Z,101852.81
2022-12-04T14:06:24.982Z,101861.44
2022-12-04T14:08:58.160Z,101857.56
2022-12-04T14:11:26.649Z,101861.72
2022-12-04T14:13:57.376Z,101872.88
2022-12-04T14:16:28.929Z,101879.16
2022-12-04T14:19:00.711Z,101881.81
2022-12-04T14:21:40.049Z,101877.38
2022-12-04T14:24:17.488Z,101863.00
2022-12-04T14:27:10.755Z,101872.31
2022-12-04T14:29:47.117Z,101868.81
2022-12-04T14:32:22.321Z,101876.91
2022-12-04T14:34:51.760Z,101871.06
2022-12-04T14:37:27.837Z,101864.34
2022-12-04T14:39:57.750Z,101872.41
2022-12-04T14:42:27.278Z,101864.91
2022-12-04T14:44:57.282Z,101861.53
2022-12-04T14:47:37.615Z,101868.78
2022-12-04T14:50:35.125Z,101870.47
2022-12-04T14:53:14.254Z,101874.38
2022-12-04T14:55:52.131Z,101874.78
2022-12-04T14:58:34.587Z,101867.41
2022-12-04T15:01:04.770Z,101873.13
2022-12-04T15:03:36.229Z,101868.53
2022-12-04T15:06:07.324Z,101877.88
2022-12-04T15:08:35.626Z,101870.47
2022-12-04T15:11:25.071Z,101876.31
2022-12-04T15:13:52.659Z,101868.66
2022-12-04T15:16:22.556Z,101864.63
2022-12-04T15:19:01.342Z,101866.03
2022-12-04T15:21:37.573Z,101864.72
2022-12-04T15:24:09.445Z,101867.53
2022-12-04T15:26:38.343Z,101852.59
2022-12-04T15:29:08.831Z,101855.94
2022-12-04T15:31:39.041Z,101858.06
2022-12-04T15:34:14.478Z,101852.47
2022-12-04T15:36:47.519Z,101854.00
2022-12-04T15:39:19.824Z,101848.03
2022-12-04T15:41:47.960Z,101848.91
2022-12-04T15:44:28.445Z,101843.22
2022-12-04T15:46:57.941Z,101848.09
2022-12-04T15:49:27.763Z,101849.75
2022-12-04T15:52:07.702Z,101854.22
2022-12-04T15:54:36.218Z,101846.03
2022-12-04T15:57:06.964Z,101853.69
2022-12-04T15:59:36.468Z,101845.34
2022-12-04T16:02:09.696Z,101849.38
2022-12-04T16:04:42.440Z,101848.66
2022-12-04T16:07:21.553Z,101845.34
2022-12-04T16:09:59.414Z,101845.63
2022-12-04T16:12:32.234Z,101841.44
2022-12-04T16:14:59.767Z,101839.47
2022-12-04T16:17:31.655Z,101839.84
2022-12-04T16:20:00.623Z,101842.22
2022-12-04T16:22:31.299Z,101824.97
2022-12-04T16:24:59.175Z,101830.41
2022-12-04T16:27:27.060Z,101834.69
2022-12-04T16:29:54.628Z,101835.94
2022-12-04T16:32:31.738Z,101828.25
2022-12-04T16:34:59.850Z,101821.63
2022-12-04T16:37:29.852Z,101828.69
2022-12-04T16:39:58.415Z,101826.31
2022-12-04T16:42:28.517Z,101822.41
2022-12-04T16:44:56.862Z,101822.31
2022-12-04T16:47:24.620Z,101826.56
2022-12-04T16:49:53.557Z,101824.69
2022-12-04T16:52:21.423Z,101833.28
2022-12-04T16:54:50.346Z,101837.13
2022-12-04T16:57:17.831Z,101836.00
2022-12-04T16:59:45.381Z,101840.63
2022-12-04T17:02:17.853Z,101839.63
2022-12-04T17:04:45.513Z,101846.06
2022-12-04T17:07:13.262Z,101842.63
2022-12-04T17:09:40.826Z,101846.88
2022-12-04T17:12:09.886Z,101854.41
2022-12-04T17:14:38.861Z,101847.72
2022-12-04T17:17:06.522Z,101844.41
2022-12-04T17:19:34.013Z,101850.09
2022-12-04T17:22:02.046Z,101869.22
2022-12-04T17:24:29.537Z,101854.41
2022-12-04T17:26:58.086Z,101859.78
2022-12-04T17:29:26.955Z,101863.72
2022-12-04T17:31:54.586Z,101861.75
2022-12-04T17:34:22.095Z,101867.16
2022-12-04T17:36:49.616Z,101865.47
2022-12-04T17:39:17.160Z,101867.16
2022-12-04T17:41:44.659Z,101874.41
2022-12-04T17:44:12.148Z,101877.47
2022-12-04T17:46:41.089Z,101877.47
2022-12-04T17:49:08.595Z,101880.59
2022-12-04T17:51:36.163Z,101874.97
2022-12-04T17:54:03.832Z,101879.41
2022-12-04T17:56:32.177Z,101876.91
2022-12-04T17:58:59.775Z,101877.22
2022-12-04T18:01:29.744Z,101880.41
2022-12-04T18:04:01.695Z,101875.81
2022-12-04T18:06:31.114Z,101874.84
2022-12-04T18:08:59.093Z,101871.06
2022-12-04T18:11:28.698Z,101878.34
2022-12-04T18:13:58.087Z,101878.34
2022-12-04T18:16:26.278Z,101874.69
2022-12-04T18:18:54.405Z,101877.78
2022-12-04T18:21:23.621Z,101874.19
2022-12-04T18:23:51.528Z,101868.97
2022-12-04T18:26:20.763Z,101870.41
2022-12-04T18:28:50.787Z,101876.38
2022-12-04T18:31:19.587Z,101879.41
2022-12-04T18:33:47.761Z,101879.41
2022-12-04T18:36:17.434Z,101878.63
2022-12-04T18:38:46.983Z,101882.94
2022-12-04T18:41:15.516Z,101885.69
2022-12-04T18:43:45.260Z,101891.00
2022-12-04T18:46:14.771Z,101885.00
2022-12-04T18:48:44.183Z,101890.28
2022-12-04T18:51:16.971Z,101900.13
2022-12-04T18:53:46.482Z,101893.66
2022-12-04T18:56:14.697Z,101893.66
2022-12-04T18:58:42.714Z,101891.97
2022-12-04T19:01:13.629Z,101889.22
2022-12-04T19:03:42.510Z,101895.06
2022-12-04T19:06:10.663Z,101896.78
2022-12-04T19:08:42.784Z,101896.34
2022-12-04T19:11:14.497Z,101892.00
2022-12-04T19:13:43.017Z,101893.72
2022-12-04T19:16:12.936Z,101897.09
2022-12-04T19:18:40.570Z,101899.56
2022-12-04T19:21:09.064Z,101888.97
2022-12-04T19:23:36.582Z,101891.50
2022-12-04T19:26:04.523Z,101888.44
2022-12-04T19:28:33.448Z,101892.31
2022-12-04T19:31:01.032Z,101899.00
2022-12-04T19:33:29.214Z,101891.34
2022-12-04T19:35:58.078Z,101891.50
2022-12-04T19:38:26.051Z,101893.53
2022-12-04T19:41:03.710Z,101900.75
2022-12-04T19:43:32.627Z,101885.34
2022-12-04T19:46:00.276Z,101893.44
2022-12-04T19:48:28.326Z,101893.34
2022-12-04T19:50:56.064Z,101899.38
2022-12-04T19:53:23.690Z,101900.91
2022-12-04T19:55:51.269Z,101891.69
2022-12-04T19:58:18.802Z,101899.25
2022-12-04T20:00:49.336Z,101892.94
2022-12-04T20:03:16.933Z,101893.50
2022-12-04T20:05:44.495Z,101894.50
2022-12-04T20:10:38.591Z,101880.78
2022-12-04T20:13:06.215Z,101882.47
2022-12-04T20:15:36.117Z,101877.00
2022-12-04T20:18:06.414Z,101876.47
2022-12-04T20:20:34.226Z,101874.06
2022-12-04T20:23:01.836Z,101871.06
2022-12-04T20:25:29.366Z,101866.44
2022-12-04T20:27:56.925Z,101865.78
2022-12-04T20:30:24.525Z,101869.69
2022-12-04T20:32:52.071Z,101868.34
2022-12-04T20:35:20.979Z,101869.25
2022-12-04T20:37:48.511Z,101857.75
2022-12-04T20:40:16.316Z,101864.47
2022-12-04T20:42:43.914Z,101856.22
2022-12-04T20:45:12.306Z,101853.97
2022-12-04T20:47:40.269Z,101856.34
2022-12-04T20:50:09.138Z,101853.56
2022-12-04T20:52:38.219Z,101857.75
2022-12-04T20:55:06.749Z,101853.78
2022-12-04T20:57:35.558Z,101857.88
2022-12-04T21:00:03.139Z,101859.41
2022-12-04T21:02:30.744Z,101859.63
2022-12-04T21:04:58.317Z,101855.75
2022-12-04T21:07:25.843Z,101858.50
2022-12-04T21:09:55.043Z,101850.16
2022-12-04T21:12:43.311Z,101858.78
2022-12-04T21:15:29.367Z,101851.38
2022-12-04T21:17:56.936Z,101848.69
2022-12-04T21:20:24.516Z,101841.84
2022-12-04T21:22:52.114Z,101841.00
2022-12-04T21:25:21.496Z,101842.69
2022-12-04T21:27:52.540Z,101848.81
2022-12-04T21:30:20.314Z,101833.31
2022-12-04T21:32:47.970Z,101846.09
2022-12-04T21:35:15.557Z,101846.00
2022-12-04T21:37:43.067Z,101842.13
2022-12-04T21:40:11.691Z,101843.66
2022-12-04T21:42:40.628Z,101834.28
2022-12-04T21:45:08.881Z,101832.84
2022-12-04T21:47:37.484Z,101840.38
2022-12-04T21:50:05.902Z,101844.00
2022-12-04T21:52:33.420Z,101838.69
2022-12-04T21:55:01.176Z,101833.72
2022-12-04T21:57:29.247Z,101831.94
2022-12-04T21:59:58.510Z,101829.03
2022-12-04T22:02:26.300Z,101835.47
2022-12-04T22:04:53.891Z,101831.25
2022-12-04T22:07:21.399Z,101825.66
2022-12-04T22:09:48.935Z,101823.38
2022-12-04T22:15:05.868Z,101818.56
2022-12-04T22:17:33.457Z,101820.81
2022-12-04T22:20:01.021Z,101818.09
2022-12-04T22:22:28.610Z,101819.16
2022-12-04T22:24:56.166Z,101813.88
2022-12-04T22:27:23.723Z,101802.97
2022-12-04T22:29:51.644Z,101805.16
2022-12-04T22:32:21.101Z,101811.97
2022-12-04T22:34:48.890Z,101811.31
2022-12-04T22:37:16.462Z,101811.84
2022-12-04T22:39:44.000Z,101805.16
2022-12-04T22:42:11.591Z,101816.91
2022-12-04T22:44:39.078Z,101815.63
2022-12-04T22:47:06.657Z,101815.22
2022-12-04T22:49:35.601Z,101813.88
2022-12-04T22:52:03.182Z,101817.06
2022-12-04T22:54:30.691Z,101818.56
2022-12-04T22:56:58.231Z,101804.03
2022-12-04T22:59:25.804Z,101817.88
2022-12-04T23:01:53.383Z,101817.19
2022-12-04T23:04:20.942Z,101804.78
2022-12-04T23:06:49.863Z,101818.72
2022-12-04T23:09:18.437Z,101812.13
2022-12-04T23:11:46.746Z,101807.69
2022-12-04T23:14:15.854Z,101807.69
2022-12-04T23:16:43.685Z,101804.88
2022-12-04T23:19:15.116Z,101807.38
2022-12-04T23:21:43.531Z,101805.22
2022-12-04T23:24:12.902Z,101796.97
2022-12-04T23:26:42.572Z,101800.91
2022-12-04T23:29:29.805Z,101802.19
2022-12-04T23:31:57.971Z,101803.56
2022-12-04T23:34:25.921Z,101797.97
2022-12-04T23:36:53.472Z,101793.72
2022-12-04T23:39:22.422Z,101791.00
2022-12-04T23:41:50.011Z,101798.03
2022-12-04T23:44:17.529Z,101794.78
2022-12-04T23:46:45.320Z,101796.28
2022-12-04T23:49:12.925Z,101795.47
2022-12-04T23:51:40.435Z,101789.84
2022-12-04T23:54:07.947Z,101797.97
2022-12-04T23:56:36.907Z,101791.53
2022-12-04T23:59:04.634Z,101793.28
